createdAt,value
2019-04-20T00:00:01.034Z,8.93
2019-04-20T00:02:27.487Z,7.47
2019-04-20T00:04:55.085Z,6.25
2019-04-20T00:07:24.669Z,8.93
2019-04-20T00:09:59.025Z,6.03
2019-04-20T00:12:34.136Z,6.70
2019-04-20T00:14:50.032Z,11.55
2019-04-20T00:17:17.854Z,8.35
2019-04-20T00:19:49.063Z,9.10
2019-04-20T00:22:20.047Z,7.17
2019-04-20T00:25:04.041Z,9.60
2019-04-20T00:27:50.340Z,7.22
2019-04-20T00:30:16.200Z,7.05
2019-04-20T00:32:41.264Z,8.05
2019-04-20T00:34:57.957Z,8.35
2019-04-20T00:37:25.446Z,8.70
2019-04-20T00:39:53.198Z,14.25
2019-04-20T00:42:30.320Z,7.12
2019-04-20T00:44:56.363Z,11.43
2019-04-20T00:47:30.719Z,12.37
2019-04-20T00:50:02.545Z,9.95
2019-04-20T00:52:29.895Z,9.68
2019-04-20T00:54:47.347Z,17.10
2019-04-20T00:57:25.889Z,13.38
2019-04-20T01:00:09.007Z,14.93
2019-04-20T01:02:25.796Z,12.18
2019-04-20T01:04:57.872Z,14.00
2019-04-20T01:07:39.432Z,11.03
2019-04-20T01:10:02.722Z,13.43
2019-04-20T01:12:33.801Z,12.18
2019-04-20T01:15:05.359Z,14.20
2019-04-20T01:17:28.642Z,12.33
2019-04-20T01:19:56.027Z,10.40
2019-04-20T01:22:25.425Z,15.60
2019-04-20T01:24:53.691Z,13.25
2019-04-20T01:27:32.430Z,11.48
2019-04-20T01:30:02.763Z,16.73
2019-04-20T01:32:31.351Z,10.58
2019-04-20T01:35:01.559Z,14.70
2019-04-20T01:37:33.726Z,14.18
2019-04-20T01:39:51.006Z,13.43
2019-04-20T01:42:17.332Z,13.28
2019-04-20T01:44:48.622Z,9.90
2019-04-20T01:47:15.045Z,12.13
2019-04-20T01:49:46.700Z,14.93
2019-04-20T01:52:20.191Z,17.85
2019-04-20T01:55:06.405Z,10.80
2019-04-20T01:57:30.006Z,11.65
2019-04-20T02:00:09.253Z,14.07
2019-04-20T02:02:58.515Z,13.70
2019-04-20T02:05:29.089Z,13.78
2019-04-20T02:07:55.112Z,14.20
2019-04-20T02:10:31.146Z,13.08
2019-04-20T02:12:57.600Z,12.85
2019-04-20T02:15:29.363Z,12.63
2019-04-20T02:18:03.364Z,10.38
2019-04-20T02:20:37.515Z,13.05
2019-04-20T02:23:06.807Z,10.05
2019-04-20T02:25:16.774Z,11.55
2019-04-20T02:27:51.358Z,10.15
2019-04-20T02:30:53.889Z,10.28
2019-04-20T02:33:27.382Z,10.55
2019-04-20T02:39:27.015Z,12.45
2019-04-20T02:46:41.536Z,10.55
2019-04-20T02:49:12.938Z,10.28
2019-04-20T02:51:42.271Z,8.50
2019-04-20T02:56:40.209Z,12.30
2019-04-20T02:59:25.042Z,10.13
2019-04-20T03:01:41.804Z,11.03
2019-04-20T03:06:29.544Z,9.05
2019-04-20T03:09:11.360Z,11.78
2019-04-20T03:11:48.482Z,11.25
2019-04-20T03:14:05.225Z,13.58
2019-04-20T03:16:31.891Z,16.15
2019-04-20T03:18:58.709Z,13.13
2019-04-20T03:21:41.833Z,15.80
2019-04-20T03:24:09.867Z,17.73
2019-04-20T03:26:47.503Z,14.13
2019-04-20T03:29:46.919Z,14.23
2019-04-20T03:33:00.096Z,13.83
2019-04-20T03:37:23.252Z,13.58
2019-04-20T03:39:40.478Z,11.97
2019-04-20T03:41:56.959Z,14.05
2019-04-20T03:44:28.759Z,14.78
2019-04-20T03:46:57.933Z,11.55
2019-04-20T03:49:51.825Z,15.48
2019-04-20T03:52:51.431Z,15.10
2019-04-20T03:55:44.462Z,12.40
2019-04-20T03:58:35.564Z,10.68
2019-04-20T04:01:12.591Z,15.25
2019-04-20T04:04:05.244Z,12.05
2019-04-20T04:06:22.803Z,10.48
2019-04-20T04:08:55.513Z,10.60
2019-04-20T04:11:29.770Z,11.70
2019-04-20T04:13:39.664Z,11.80
2019-04-20T04:16:11.653Z,12.00
2019-04-20T04:18:41.003Z,13.10
2019-04-20T04:21:11.502Z,9.58
2019-04-20T04:23:50.353Z,8.43
2019-04-20T04:26:22.307Z,12.40
2019-04-20T04:28:48.950Z,9.45
2019-04-20T04:31:28.125Z,10.20
2019-04-20T04:33:56.540Z,10.00
2019-04-20T04:36:18.215Z,9.90
2019-04-20T04:38:53.410Z,12.43
2019-04-20T04:41:25.532Z,9.85
2019-04-20T04:43:44.363Z,12.82
2019-04-20T04:45:57.540Z,13.65
2019-04-20T04:48:29.984Z,8.83
2019-04-20T04:50:59.548Z,9.68
2019-04-20T04:53:38.768Z,9.20
2019-04-20T04:55:58.583Z,9.75
2019-04-20T04:58:21.708Z,12.65
2019-04-20T05:00:49.439Z,11.45
2019-04-20T05:03:35.692Z,12.23
2019-04-20T05:06:10.404Z,11.38
2019-04-20T05:08:26.177Z,10.88
2019-04-20T05:10:49.969Z,11.40
2019-04-20T05:13:17.789Z,10.82
2019-04-20T05:15:53.920Z,10.78
2019-04-20T05:18:43.435Z,14.90
2019-04-20T05:21:10.803Z,10.48
2019-04-20T05:23:37.542Z,12.63
2019-04-20T05:26:45.962Z,13.75
2019-04-20T05:29:02.696Z,13.38
2019-04-20T05:31:23.458Z,16.15
2019-04-20T05:34:14.427Z,11.03
2019-04-20T05:36:42.736Z,13.75
2019-04-20T05:39:17.693Z,13.62
2019-04-20T05:41:37.360Z,12.65
2019-04-20T05:44:12.387Z,12.50
2019-04-20T05:46:51.362Z,11.73
2019-04-20T05:49:23.405Z,11.48
2019-04-20T05:51:49.889Z,11.12
2019-04-20T05:54:23.389Z,13.03
2019-04-20T05:56:45.657Z,12.53
2019-04-20T05:59:13.891Z,13.70
2019-04-20T06:01:52.802Z,12.43
2019-04-20T06:04:10.071Z,11.08
2019-04-20T06:06:45.164Z,11.70
2019-04-20T06:09:16.600Z,13.05
2019-04-20T06:12:00.683Z,10.53
2019-04-20T06:14:05.872Z,11.70
2019-04-20T06:17:00.159Z,9.98
2019-04-20T06:22:21.662Z,12.90
2019-04-20T06:25:16.651Z,15.03
2019-04-20T06:27:36.516Z,12.23
2019-04-20T06:29:59.261Z,12.80
2019-04-20T06:33:12.832Z,13.05
2019-04-20T06:35:54.653Z,16.25
2019-04-20T06:38:10.022Z,13.98
2019-04-20T06:41:02.294Z,11.57
2019-04-20T06:43:06.210Z,13.18
2019-04-20T06:45:33.770Z,12.35
2019-04-20T06:48:12.246Z,17.77
2019-04-20T06:50:29.217Z,13.50
2019-04-20T06:53:16.411Z,13.18
2019-04-20T06:55:51.097Z,12.10
2019-04-20T06:58:26.166Z,13.35
2019-04-20T07:00:44.465Z,13.43
2019-04-20T07:03:11.966Z,12.60
2019-04-20T07:05:39.464Z,14.10
2019-04-20T07:08:27.683Z,14.87
2019-04-20T07:10:38.045Z,11.95
2019-04-20T07:13:00.296Z,11.73
2019-04-20T07:15:38.772Z,11.22
2019-04-20T07:18:23.002Z,12.98
2019-04-20T07:21:16.050Z,14.20
2019-04-20T07:23:59.098Z,12.33
2019-04-20T07:26:09.563Z,16.93
2019-04-20T07:28:43.600Z,11.63
2019-04-20T07:31:01.694Z,13.83
2019-04-20T07:33:32.222Z,12.70
2019-04-20T07:36:04.132Z,11.03
2019-04-20T07:38:34.314Z,14.75
2019-04-20T07:41:01.494Z,12.30
2019-04-20T07:43:31.911Z,14.50
2019-04-20T07:46:04.753Z,13.55
2019-04-20T07:48:26.175Z,13.90
2019-04-20T07:50:50.961Z,14.28
2019-04-20T07:53:20.401Z,11.08
2019-04-20T07:55:53.988Z,14.20
2019-04-20T07:58:17.289Z,13.15
2019-04-20T08:01:04.272Z,14.65
2019-04-20T08:03:51.441Z,12.95
2019-04-20T08:06:14.298Z,12.47
2019-04-20T08:08:53.118Z,12.37
2019-04-20T08:11:25.666Z,14.45
2019-04-20T08:14:00.311Z,15.72
2019-04-20T08:16:35.665Z,13.22
2019-04-20T08:18:53.780Z,13.38
2019-04-20T08:21:25.737Z,14.25
2019-04-20T08:23:48.953Z,13.83
2019-04-20T08:26:11.387Z,15.60
2019-04-20T08:28:45.819Z,15.25
2019-04-20T08:31:39.812Z,17.05
2019-04-20T08:34:27.877Z,17.23
2019-04-20T08:36:52.616Z,13.40
2019-04-20T08:39:30.483Z,14.10
2019-04-20T08:41:54.783Z,15.35
2019-04-20T08:44:41.360Z,12.95
2019-04-20T08:46:59.403Z,13.88
2019-04-20T08:49:22.073Z,13.35
2019-04-20T08:51:49.729Z,13.80
2019-04-20T08:54:14.395Z,15.25
2019-04-20T08:56:35.130Z,13.48
2019-04-20T08:58:52.879Z,13.65
2019-04-20T09:01:25.711Z,11.97
2019-04-20T09:03:58.958Z,16.60
2019-04-20T09:06:34.820Z,14.05
2019-04-20T09:09:03.569Z,12.45
2019-04-20T09:11:41.846Z,17.67
2019-04-20T09:13:53.065Z,13.08
2019-04-20T09:16:19.886Z,12.40
2019-04-20T09:18:54.831Z,13.65
2019-04-20T09:21:25.443Z,14.68
2019-04-20T09:24:13.248Z,15.32
2019-04-20T09:26:34.277Z,12.55
2019-04-20T09:29:09.497Z,13.45
2019-04-20T09:31:52.077Z,12.05
2019-04-20T09:34:42.651Z,13.25
2019-04-20T09:37:35.777Z,12.88
2019-04-20T09:40:14.274Z,11.95
2019-04-20T09:42:41.909Z,12.00
2019-04-20T09:45:20.218Z,10.03
2019-04-20T09:47:44.965Z,10.13
2019-04-20T09:50:29.218Z,12.25
2019-04-20T09:53:01.487Z,8.70
2019-04-20T09:55:23.249Z,8.70
2019-04-20T09:57:54.111Z,9.98
2019-04-20T10:00:25.638Z,9.98
2019-04-20T10:02:39.244Z,11.40
2019-04-20T10:05:07.406Z,8.68
2019-04-20T10:07:37.285Z,8.70
2019-04-20T10:10:18.835Z,9.43
2019-04-20T10:12:35.696Z,9.05
2019-04-20T10:15:12.428Z,8.80
2019-04-20T10:17:34.058Z,9.28
2019-04-20T10:20:09.583Z,8.58
2019-04-20T10:22:31.138Z,9.48
2019-04-20T10:24:58.475Z,8.13
2019-04-20T10:27:26.482Z,8.83
2019-04-20T10:29:53.907Z,8.78
2019-04-20T10:32:31.130Z,10.88
2019-04-20T10:34:52.634Z,10.25
2019-04-20T10:37:23.988Z,8.45
2019-04-20T10:39:52.355Z,8.93
2019-04-20T10:42:20.431Z,8.35
2019-04-20T10:44:48.226Z,7.78
2019-04-20T10:47:16.810Z,8.28
2019-04-20T10:49:45.025Z,9.48
2019-04-20T10:52:13.664Z,9.75
2019-04-20T10:54:42.577Z,7.87
2019-04-20T10:57:09.984Z,8.83
2019-04-20T10:59:37.408Z,9.40
2019-04-20T11:02:05.656Z,10.25
2019-04-20T11:04:32.972Z,8.10
2019-04-20T11:07:00.836Z,8.78
2019-04-20T11:09:29.016Z,8.78
2019-04-20T11:11:56.640Z,11.12
2019-04-20T11:14:29.749Z,7.55
2019-04-20T11:16:54.135Z,8.73
2019-04-20T11:19:21.564Z,9.68
2019-04-20T11:21:50.179Z,9.73
2019-04-20T11:24:18.334Z,9.13
2019-04-20T11:26:46.858Z,8.45
2019-04-20T11:29:14.299Z,7.95
2019-04-20T11:31:47.348Z,7.50
2019-04-20T11:34:15.022Z,13.00
2019-04-20T11:36:41.172Z,7.33
2019-04-20T11:39:11.289Z,7.45
2019-04-20T11:41:38.998Z,6.83
2019-04-20T11:44:07.649Z,6.87
2019-04-20T11:46:36.517Z,8.53
2019-04-20T11:49:05.554Z,5.60
2019-04-20T11:51:33.842Z,8.05
2019-04-20T11:54:01.304Z,7.83
2019-04-20T11:56:33.339Z,7.30
2019-04-20T11:58:58.868Z,5.97
2019-04-20T12:01:54.761Z,6.72
2019-04-20T12:04:33.764Z,9.50
2019-04-20T12:06:53.361Z,9.20
2019-04-20T12:09:21.565Z,6.15
2019-04-20T12:12:02.150Z,12.45
2019-04-20T12:14:18.831Z,5.75
2019-04-20T12:16:46.253Z,4.80
2019-04-20T12:19:14.717Z,7.90
2019-04-20T12:21:42.293Z,6.28
2019-04-20T12:24:10.144Z,4.40
2019-04-20T12:26:38.652Z,4.97
2019-04-20T12:29:06.162Z,5.10
2019-04-20T12:31:33.595Z,4.22
2019-04-20T12:34:02.193Z,3.10
2019-04-20T12:36:30.254Z,3.60
2019-04-20T12:38:57.635Z,2.60
2019-04-20T12:41:36.660Z,4.28
2019-04-20T12:43:53.979Z,4.40
2019-04-20T12:46:22.976Z,3.33
2019-04-20T12:48:51.449Z,6.20
2019-04-20T12:51:19.641Z,3.25
2019-04-20T12:53:47.108Z,3.33
2019-04-20T12:56:14.741Z,4.08
2019-04-20T12:58:43.489Z,4.12
2019-04-20T13:01:12.085Z,5.62
2019-04-20T13:03:39.585Z,4.37
2019-04-20T13:06:08.001Z,4.25
2019-04-20T13:08:39.140Z,4.30
2019-04-20T13:11:08.825Z,5.92
2019-04-20T13:13:44.205Z,5.17
2019-04-20T13:16:20.625Z,4.53
2019-04-20T13:18:59.423Z,5.30
2019-04-20T13:21:27.124Z,3.87
2019-04-20T13:23:56.239Z,3.98
2019-04-20T13:26:25.054Z,5.92
2019-04-20T13:28:52.948Z,4.37
2019-04-20T13:31:20.410Z,6.92
2019-04-20T13:33:47.856Z,4.87
2019-04-20T13:36:16.507Z,4.62
2019-04-20T13:38:44.157Z,5.22
2019-04-20T13:41:11.746Z,5.03
2019-04-20T13:43:39.758Z,3.95
2019-04-20T13:46:07.223Z,4.12
2019-04-20T13:48:35.111Z,3.98
2019-04-20T13:51:02.756Z,4.37
2019-04-20T13:53:30.160Z,5.08
2019-04-20T13:55:59.099Z,4.72
2019-04-20T13:58:45.453Z,4.53
2019-04-20T14:01:41.833Z,6.97
2019-04-20T14:04:30.710Z,3.90
2019-04-20T14:06:59.486Z,4.42
2019-04-20T14:09:27.833Z,5.55
2019-04-20T14:11:55.192Z,3.70
2019-04-20T14:14:23.457Z,4.60
2019-04-20T14:16:50.903Z,4.60
2019-04-20T14:19:18.931Z,5.83
2019-04-20T14:21:46.415Z,4.12
2019-04-20T14:24:14.947Z,4.30
2019-04-20T14:26:44.105Z,4.47
2019-04-20T14:29:12.742Z,4.20
2019-04-20T14:31:40.203Z,4.22
2019-04-20T14:34:08.752Z,4.55
2019-04-20T14:36:37.130Z,4.17
2019-04-20T14:39:06.803Z,4.30
2019-04-20T14:41:34.251Z,3.98
2019-04-20T14:44:01.701Z,8.90
2019-04-20T14:46:29.536Z,4.67
2019-04-20T14:48:57.001Z,4.20
2019-04-20T14:51:25.659Z,4.90
2019-04-20T14:53:53.772Z,4.50
2019-04-20T14:56:21.281Z,3.80
2019-04-20T14:58:53.597Z,4.20
2019-04-20T15:01:38.723Z,4.67
2019-04-20T15:04:12.663Z,5.33
2019-04-20T15:06:38.005Z,6.00
2019-04-20T15:09:06.835Z,5.40
2019-04-20T15:11:34.710Z,4.15
2019-04-20T15:14:03.146Z,4.83
2019-04-20T15:16:30.784Z,4.42
2019-04-20T15:19:17.564Z,4.95
2019-04-20T15:21:47.413Z,7.75
2019-04-20T15:24:15.474Z,4.72
2019-04-20T15:26:42.955Z,3.90
2019-04-20T15:29:10.524Z,3.70
2019-04-20T15:31:38.431Z,5.00
2019-04-20T15:34:06.872Z,5.12
2019-04-20T15:36:34.382Z,4.67
2019-04-20T15:39:03.002Z,4.08
2019-04-20T15:41:31.408Z,6.25
2019-04-20T15:43:59.495Z,5.60
2019-04-20T15:46:27.709Z,6.10
2019-04-20T15:48:55.783Z,5.05
2019-04-20T15:51:23.715Z,4.37
2019-04-20T15:53:51.556Z,4.67
2019-04-20T15:56:18.968Z,5.75
2019-04-20T15:58:46.420Z,5.00
2019-04-20T16:01:14.386Z,8.30
2019-04-20T16:03:47.612Z,11.45
2019-04-20T16:06:15.109Z,6.90
2019-04-20T16:08:46.061Z,5.58
2019-04-20T16:11:13.497Z,7.15
2019-04-20T16:13:45.800Z,8.25
2019-04-20T16:16:11.952Z,8.25
2019-04-20T16:18:40.955Z,4.55
2019-04-20T16:21:14.353Z,6.05
2019-04-20T16:23:43.034Z,4.03
2019-04-20T16:26:29.465Z,4.40
2019-04-20T16:28:57.590Z,5.35
2019-04-20T16:31:25.191Z,4.45
2019-04-20T16:33:56.458Z,4.78
2019-04-20T16:36:22.836Z,4.55
2019-04-20T16:38:51.146Z,4.60
2019-04-20T16:41:20.062Z,3.47
2019-04-20T16:43:48.536Z,4.53
2019-04-20T16:46:19.884Z,3.87
2019-04-20T16:48:46.268Z,4.30
2019-04-20T16:51:13.787Z,3.90
2019-04-20T16:53:41.383Z,6.17
2019-04-20T16:56:08.843Z,4.05
2019-04-20T16:58:36.254Z,8.25
2019-04-20T17:01:05.519Z,4.03
2019-04-20T17:03:46.036Z,4.37
2019-04-20T17:06:04.351Z,3.72
2019-04-20T17:08:33.166Z,3.83
2019-04-20T17:11:01.567Z,3.90
2019-04-20T17:13:36.710Z,4.62
2019-04-20T17:15:59.488Z,5.33
2019-04-20T17:18:27.551Z,3.98
2019-04-20T17:20:55.109Z,3.77
2019-04-20T17:23:23.469Z,5.37
2019-04-20T17:25:52.224Z,3.72
2019-04-20T17:28:38.635Z,4.65
2019-04-20T17:31:13.552Z,3.95
2019-04-20T17:34:01.472Z,3.92
2019-04-20T17:36:24.956Z,5.17
2019-04-20T17:38:54.217Z,4.45
2019-04-20T17:41:42.954Z,4.97
2019-04-20T17:44:05.703Z,5.05
2019-04-20T17:46:27.313Z,6.75
2019-04-20T17:49:07.780Z,4.67
2019-04-20T17:51:33.910Z,6.58
2019-04-20T17:53:57.715Z,6.60
2019-04-20T17:56:22.188Z,15.13
2019-04-20T17:58:50.213Z,4.60
2019-04-20T18:01:49.867Z,8.33
2019-04-20T18:06:50.179Z,13.65
2019-04-20T18:09:25.537Z,16.27
2019-04-20T18:11:42.722Z,13.08
2019-04-20T18:14:24.273Z,10.60
2019-04-20T18:16:56.204Z,13.38
2019-04-20T18:19:21.714Z,4.35
2019-04-20T18:21:53.852Z,3.62
2019-04-20T18:24:42.433Z,3.75
2019-04-20T18:27:06.849Z,5.35
2019-04-20T18:29:36.844Z,5.33
2019-04-20T18:32:13.543Z,4.65
2019-04-20T18:35:08.357Z,7.00
2019-04-20T18:37:36.479Z,6.03
2019-04-20T18:40:10.682Z,7.05
2019-04-20T18:42:38.839Z,7.83
2019-04-20T18:45:23.155Z,5.72
2019-04-20T18:47:48.987Z,4.05
2019-04-20T18:50:13.133Z,5.00
2019-04-20T18:52:32.038Z,4.47
2019-04-20T18:54:59.562Z,3.72
2019-04-20T18:57:29.685Z,6.08
2019-04-20T18:59:57.199Z,3.95
2019-04-20T19:02:32.621Z,4.30
2019-04-20T19:04:58.071Z,5.58
2019-04-20T19:07:23.949Z,6.80
2019-04-20T19:09:53.231Z,6.22
2019-04-20T19:12:29.972Z,7.35
2019-04-20T19:15:12.123Z,4.85
2019-04-20T19:18:07.071Z,5.30
2019-04-20T19:20:28.821Z,5.83
2019-04-20T19:22:56.143Z,7.67
2019-04-20T19:25:30.266Z,5.35
2019-04-20T19:27:56.006Z,4.95
2019-04-20T19:30:34.779Z,6.22
2019-04-20T19:33:11.320Z,5.95
2019-04-20T19:35:33.975Z,8.33
2019-04-20T19:38:01.367Z,6.62
2019-04-20T19:40:33.745Z,6.55
2019-04-20T19:43:02.533Z,16.25
2019-04-20T19:45:42.668Z,7.62
2019-04-20T19:48:05.032Z,8.35
2019-04-20T19:50:57.650Z,6.85
2019-04-20T19:53:14.420Z,7.30
2019-04-20T19:55:33.105Z,8.40
2019-04-20T19:57:59.079Z,5.00
2019-04-20T20:00:16.594Z,6.80
2019-04-20T20:02:44.048Z,8.55
2019-04-20T20:05:15.751Z,7.97
2019-04-20T20:07:44.450Z,5.40
2019-04-20T20:10:10.984Z,7.87
2019-04-20T20:12:39.807Z,6.72
2019-04-20T20:15:14.827Z,9.20
2019-04-20T20:17:59.037Z,6.75
2019-04-20T20:20:30.077Z,9.40
2019-04-20T20:22:41.400Z,6.95
2019-04-20T20:25:05.377Z,7.92
2019-04-20T20:27:42.630Z,6.03
2019-04-20T20:30:09.263Z,6.75
2019-04-20T20:32:46.663Z,7.92
2019-04-20T20:35:09.969Z,6.35
2019-04-20T20:37:39.960Z,10.43
2019-04-20T20:40:12.126Z,7.67
2019-04-20T20:42:39.867Z,9.25
2019-04-20T20:45:09.289Z,8.10
2019-04-20T20:48:00.478Z,9.05
2019-04-20T20:50:32.629Z,8.08
2019-04-20T20:52:36.861Z,7.00
2019-04-20T20:55:03.768Z,11.45
2019-04-20T20:57:26.287Z,8.60
2019-04-20T21:00:00.234Z,8.45
2019-04-20T21:02:30.125Z,8.63
2019-04-20T21:04:51.503Z,9.80
2019-04-20T21:07:20.501Z,12.15
2019-04-20T21:09:48.371Z,12.78
2019-04-20T21:12:18.070Z,15.25
2019-04-20T21:14:45.872Z,10.03
2019-04-20T21:17:18.448Z,10.93
2019-04-20T21:20:02.821Z,13.55
2019-04-20T21:22:22.696Z,10.32
2019-04-20T21:24:48.222Z,9.90
2019-04-20T21:27:19.806Z,9.18
2019-04-20T21:29:51.319Z,10.58
2019-04-20T21:32:16.551Z,9.60
2019-04-20T21:34:49.303Z,9.63
2019-04-20T21:37:15.986Z,11.88
2019-04-20T21:39:47.927Z,10.25
2019-04-20T21:42:15.912Z,11.57
2019-04-20T21:44:44.373Z,9.00
2019-04-20T21:47:09.308Z,9.98
2019-04-20T21:49:49.703Z,11.40
2019-04-20T21:52:17.385Z,9.50
2019-04-20T21:54:36.028Z,9.18
2019-04-20T21:57:07.809Z,9.30
2019-04-20T21:59:39.730Z,10.88
2019-04-20T22:02:13.925Z,12.50
2019-04-20T22:04:33.459Z,11.75
2019-04-20T22:07:02.434Z,12.03
2019-04-20T22:09:34.414Z,9.65
2019-04-20T22:12:00.199Z,12.00
2019-04-20T22:14:31.339Z,12.33
2019-04-20T22:16:58.649Z,10.85
2019-04-20T22:19:36.629Z,12.73
2019-04-20T22:22:05.460Z,10.78
2019-04-20T22:24:40.238Z,13.28
2019-04-20T22:27:04.886Z,11.33
2019-04-20T22:29:23.985Z,11.18
2019-04-20T22:31:53.456Z,14.65
2019-04-20T22:34:24.495Z,13.68
2019-04-20T22:36:51.007Z,12.20
2019-04-20T22:39:33.644Z,11.60
2019-04-20T22:42:00.166Z,11.28
2019-04-20T22:44:27.121Z,11.12
2019-04-20T22:46:54.291Z,11.18
2019-04-20T22:49:38.884Z,12.37
2019-04-20T22:52:02.040Z,10.70
2019-04-20T22:54:36.194Z,9.98
2019-04-20T22:57:02.444Z,12.25
2019-04-20T22:59:23.309Z,10.82
2019-04-20T23:01:53.475Z,10.03
2019-04-20T23:04:17.204Z,12.70
2019-04-20T23:06:48.495Z,12.53
2019-04-20T23:09:14.869Z,10.08
2019-04-20T23:11:42.466Z,11.30
2019-04-20T23:14:10.859Z,15.63
2019-04-20T23:16:43.951Z,12.33
2019-04-20T23:19:07.982Z,14.10
2019-04-20T23:21:39.015Z,11.00
2019-04-20T23:24:09.491Z,13.88
2019-04-20T23:26:38.699Z,12.03
2019-04-20T23:29:03.270Z,12.18
2019-04-20T23:31:32.164Z,13.20
2019-04-20T23:34:01.745Z,13.90
2019-04-20T23:36:36.508Z,12.53
2019-04-20T23:39:02.551Z,13.98
2019-04-20T23:41:28.009Z,11.60
2019-04-20T23:44:25.120Z,12.80
2019-04-20T23:47:15.535Z,11.38
2019-04-20T23:50:06.417Z,14.25
2019-04-20T23:52:39.103Z,12.47
2019-04-20T23:54:52.589Z,14.38
2019-04-20T23:57:13.704Z,13.10
2019-04-20T23:59:44.353Z,13.32
